FDX209 KLAX-KSLC
Flight info
| Callsign | FDX209 |
|---|---|
| Flight time | N/A |
| Altitude | 35000 |
| Route | OSHNN1 BEALE Q842 WINEN MLF PITTT2 |
| Aircraft | MD11/H-SDE1E2E3FGHIJ2J3J4J5M1RWXY/LB1D1 |
Departure
| Time | 2026-04-24 04:59 |
|---|---|
| Airport | Los Angeles International Airport (KLAX) |
Arrival
| Time | N/A |
|---|---|
| Airport | Salt Lake City International Airport (KSLC) |
| Time | Latitude | Longitude | Altitude | Speed | Heading |
|---|---|---|---|---|---|
| 2026-04-24 04:41 | 33.93409 | -118.38773 | 133 ft | 0 kts | 174° |
| 2026-04-24 04:51 | 33.93414 | -118.38773 | 129 ft | 1 kts | 174° |
| 2026-04-24 04:52 | 33.93421 | -118.38774 | 132 ft | 1 kts | 175° |
| 2026-04-24 04:52 | 33.93428 | -118.38775 | 129 ft | 1 kts | 175° |
| 2026-04-24 04:52 | 33.93435 | -118.38776 | 131 ft | 1 kts | 175° |
| 2026-04-24 04:52 | 33.93443 | -118.38777 | 133 ft | 2 kts | 175° |
| 2026-04-24 04:53 | 33.93455 | -118.38778 | 133 ft | 2 kts | 174° |
| 2026-04-24 04:53 | 33.93473 | -118.38780 | 133 ft | 3 kts | 174° |
| 2026-04-24 04:53 | 33.93493 | -118.38783 | 132 ft | 3 kts | 172° |
| 2026-04-24 04:53 | 33.93513 | -118.38786 | 133 ft | 3 kts | 166° |
| 2026-04-24 04:54 | 33.93531 | -118.38794 | 133 ft | 3 kts | 136° |
| 2026-04-24 04:54 | 33.93544 | -118.38813 | 131 ft | 3 kts | 113° |
| 2026-04-24 04:54 | 33.93549 | -118.38836 | 130 ft | 3 kts | 99° |
| 2026-04-24 04:54 | 33.93552 | -118.38860 | 133 ft | 3 kts | 84° |
| 2026-04-24 04:55 | 33.93552 | -118.38864 | 133 ft | 0 kts | 84° |
| 2026-04-24 04:55 | 33.93552 | -118.38858 | 133 ft | 3 kts | 83° |
| 2026-04-24 04:56 | 33.93558 | -118.38802 | 133 ft | 9 kts | 83° |
| 2026-04-24 04:56 | 33.93567 | -118.38711 | 131 ft | 13 kts | 82° |
| 2026-04-24 04:56 | 33.93580 | -118.38604 | 127 ft | 14 kts | 82° |
| 2026-04-24 04:56 | 33.93592 | -118.38455 | 133 ft | 23 kts | 84° |
| 2026-04-24 04:57 | 33.93620 | -118.38297 | 130 ft | 12 kts | 49° |
| 2026-04-24 04:57 | 33.93632 | -118.38288 | 131 ft | 0 kts | 27° |
| 2026-04-24 04:57 | 33.93633 | -118.38288 | 131 ft | 2 kts | 26° |
| 2026-04-24 04:58 | 33.93730 | -118.38334 | 133 ft | 14 kts | 288° |
| 2026-04-24 04:58 | 33.93727 | -118.38375 | 128 ft | 6 kts | 260° |
| 2026-04-24 04:58 | 33.93681 | -118.38793 | 128 ft | 94 kts | 263° |
| 2026-04-24 04:58 | 33.93572 | -118.39871 | 136 ft | 164 kts | 262° |
| 2026-04-24 04:59 | 33.93416 | -118.41385 | 431 ft | 194 kts | 262° |
| 2026-04-24 04:59 | 33.93253 | -118.43006 | 1412 ft | 181 kts | 264° |
| 2026-04-24 04:59 | 33.93105 | -118.44521 | 2310 ft | 194 kts | 261° |
| 2026-04-24 04:59 | 33.92581 | -118.46008 | 2643 ft | 192 kts | 238° |
| 2026-04-24 05:00 | 33.91800 | -118.47345 | 2966 ft | 196 kts | 235° |
| 2026-04-24 05:00 | 33.91001 | -118.48656 | 3615 ft | 198 kts | 234° |
| 2026-04-24 05:00 | 33.90106 | -118.50061 | 4040 ft | 221 kts | 233° |
| 2026-04-24 05:00 | 33.89122 | -118.51575 | 4430 ft | 242 kts | 232° |
| 2026-04-24 05:01 | 33.88033 | -118.53236 | 4782 ft | 265 kts | 232° |
| 2026-04-24 05:01 | 33.86686 | -118.54841 | 5279 ft | 275 kts | 216° |
| 2026-04-24 05:01 | 33.84926 | -118.55783 | 5996 ft | 280 kts | 189° |
| 2026-04-24 05:01 | 33.82666 | -118.55705 | 6808 ft | 283 kts | 170° |
| 2026-04-24 05:02 | 33.78759 | -118.54639 | 8242 ft | 291 kts | 167° |
| 2026-04-24 05:02 | 33.74753 | -118.53477 | 10072 ft | 299 kts | 169° |
| 2026-04-24 05:02 | 33.70573 | -118.51355 | 10545 ft | 367 kts | 144° |
| 2026-04-24 05:02 | 33.67215 | -118.44825 | 12438 ft | 392 kts | 110° |
| 2026-04-24 05:03 | 33.64327 | -118.31734 | 15406 ft | 418 kts | 93° |
| 2026-04-24 05:03 | 33.65817 | -118.17836 | 18622 ft | 436 kts | 58° |
| 2026-04-24 05:03 | 33.74877 | -118.08338 | 21672 ft | 445 kts | 30° |
| 2026-04-24 05:03 | 33.85434 | -117.99201 | 24272 ft | 466 kts | 32° |
| 2026-04-24 05:04 | 33.95866 | -117.89707 | 26200 ft | 480 kts | 33° |
| 2026-04-24 05:04 | 34.15031 | -117.70217 | 29313 ft | 507 kts | 46° |
| 2026-04-24 05:04 | 34.29589 | -117.46837 | 31296 ft | 522 kts | 47° |
| 2026-04-24 05:04 | 34.38863 | -117.33182 | 32663 ft | 522 kts | 47° |
| 2026-04-24 05:05 | 34.47912 | -117.19619 | 34006 ft | 520 kts | 47° |
| 2026-04-24 05:05 | 34.57073 | -117.05929 | 34896 ft | 522 kts | 46° |
| 2026-04-24 05:05 | 34.66430 | -116.92321 | 34972 ft | 535 kts | 46° |
| 2026-04-24 05:05 | 34.85314 | -116.64675 | 34973 ft | 535 kts | 46° |
| 2026-04-24 05:06 | 35.25063 | -116.11235 | 34948 ft | 535 kts | 43° |
| 2026-04-24 05:06 | 35.64973 | -115.56761 | 34996 ft | 536 kts | 44° |
| 2026-04-24 05:07 | 36.04410 | -115.01855 | 34982 ft | 536 kts | 44° |
| 2026-04-24 05:07 | 36.24838 | -114.75342 | 34852 ft | 520 kts | 30° |
| 2026-04-24 05:07 | 36.50489 | -114.61532 | 34882 ft | 515 kts | 15° |
| 2026-04-24 05:08 | 37.00326 | -114.24730 | 34880 ft | 522 kts | 26° |